createdAt,value
2023-01-13T00:02:04.003Z,12.40
2023-01-13T00:04:32.751Z,12.50
2023-01-13T00:07:01.256Z,12.30
2023-01-13T00:09:29.758Z,12.40
2023-01-13T00:11:57.993Z,12.40
2023-01-13T00:14:29.901Z,12.50
2023-01-13T00:17:02.597Z,12.40
2023-01-13T00:19:31.317Z,12.30
2023-01-13T00:21:59.888Z,12.40
2023-01-13T00:24:28.794Z,12.40
2023-01-13T00:26:57.224Z,12.40
2023-01-13T00:29:26.044Z,12.40
2023-01-13T00:31:55.589Z,12.40
2023-01-13T00:34:27.274Z,12.40
2023-01-13T00:36:56.387Z,12.40
2023-01-13T00:39:25.086Z,12.30
2023-01-13T00:42:11.323Z,12.40
2023-01-13T00:44:42.352Z,12.40
2023-01-13T00:47:10.930Z,12.30
2023-01-13T00:49:40.613Z,12.40
2023-01-13T00:52:09.217Z,12.40
2023-01-13T00:54:37.686Z,12.50
2023-01-13T00:57:09.286Z,12.50
2023-01-13T00:59:37.899Z,12.50
2023-01-13T01:02:06.286Z,12.50
2023-01-13T01:04:35.188Z,12.50
2023-01-13T01:07:07.973Z,12.60
2023-01-13T01:09:36.639Z,12.50
2023-01-13T01:12:05.418Z,12.50
2023-01-13T01:14:33.834Z,12.50
2023-01-13T01:17:02.348Z,12.50
2023-01-13T01:19:30.753Z,12.50
2023-01-13T01:21:59.288Z,12.50
2023-01-13T01:24:29.085Z,12.50
2023-01-13T01:26:57.600Z,12.60
2023-01-13T01:29:26.104Z,12.50
2023-01-13T01:31:54.574Z,12.50
2023-01-13T01:34:23.035Z,12.60
2023-01-13T01:36:54.182Z,12.50
2023-01-13T01:39:22.674Z,12.50
2023-01-13T01:42:10.393Z,12.60
2023-01-13T01:45:03.496Z,12.50
2023-01-13T01:47:33.472Z,12.50
2023-01-13T01:50:04.278Z,12.50
2023-01-13T01:52:36.536Z,12.60
2023-01-13T01:55:07.724Z,12.50
2023-01-13T01:57:43.711Z,12.60
2023-01-13T02:00:13.664Z,12.60
2023-01-13T02:02:44.629Z,12.50
2023-01-13T02:05:13.567Z,12.50
2023-01-13T02:07:44.724Z,12.60
2023-01-13T02:10:15.071Z,12.60
2023-01-13T02:12:46.465Z,12.50
2023-01-13T02:15:17.417Z,12.60
2023-01-13T02:18:20.690Z,12.60
2023-01-13T02:21:08.799Z,12.50
2023-01-13T02:24:19.385Z,12.60
2023-01-13T02:27:14.968Z,12.60
2023-01-13T02:30:17.055Z,12.60
2023-01-13T02:32:57.254Z,12.60
2023-01-13T02:35:31.267Z,12.50
2023-01-13T02:38:01.821Z,12.50
2023-01-13T02:40:38.204Z,12.60
2023-01-13T02:43:30.931Z,12.60
2023-01-13T02:46:06.926Z,12.50
2023-01-13T02:48:38.124Z,12.60
2023-01-13T02:51:10.538Z,12.60
2023-01-13T02:53:44.435Z,12.60
2023-01-13T02:56:16.549Z,12.60
2023-01-13T02:58:48.363Z,12.60
2023-01-13T03:01:20.603Z,12.60
2023-01-13T03:03:50.198Z,12.60
2023-01-13T03:06:38.348Z,12.60
2023-01-13T03:09:12.492Z,12.70
2023-01-13T03:11:53.724Z,12.60
2023-01-13T03:14:35.878Z,12.60
2023-01-13T03:17:17.594Z,12.60
2023-01-13T03:19:56.081Z,12.60
2023-01-13T03:22:31.751Z,12.60
2023-01-13T03:25:08.499Z,12.60
2023-01-13T03:27:45.417Z,12.60
2023-01-13T03:30:19.974Z,12.60
2023-01-13T03:32:54.090Z,12.70
2023-01-13T03:35:27.134Z,12.70
2023-01-13T03:38:00.698Z,12.70
2023-01-13T03:40:37.175Z,12.70
2023-01-13T03:43:29.551Z,12.60
2023-01-13T03:46:03.788Z,12.60
2023-01-13T03:48:36.978Z,12.50
2023-01-13T03:51:12.226Z,12.60
2023-01-13T03:53:47.132Z,12.50
2023-01-13T03:56:20.807Z,12.60
2023-01-13T03:58:51.411Z,12.50
2023-01-13T04:01:25.246Z,12.50
2023-01-13T04:04:00.193Z,12.50
2023-01-13T04:06:39.405Z,12.40
2023-01-13T04:09:14.974Z,12.40
2023-01-13T04:11:49.507Z,12.40
2023-01-13T04:14:21.107Z,12.40
2023-01-13T04:16:49.976Z,12.30
2023-01-13T04:19:19.656Z,12.40
2023-01-13T04:21:48.343Z,12.40
2023-01-13T04:24:16.629Z,12.40
2023-01-13T04:26:45.022Z,12.50
2023-01-13T04:29:15.506Z,12.40
2023-01-13T04:31:44.783Z,12.40
2023-01-13T04:34:13.221Z,12.50
2023-01-13T04:36:42.901Z,12.40
2023-01-13T04:39:11.267Z,12.50
2023-01-13T04:41:56.568Z,12.50
2023-01-13T04:44:24.811Z,12.50
2023-01-13T04:46:54.253Z,12.40
2023-01-13T04:49:23.171Z,12.50
2023-01-13T04:51:53.120Z,12.40
2023-01-13T04:54:21.699Z,12.40
2023-01-13T04:56:50.204Z,12.30
2023-01-13T04:59:18.668Z,12.30
2023-01-13T05:01:47.308Z,12.40
2023-01-13T05:04:18.205Z,12.40
2023-01-13T05:06:46.672Z,12.50
2023-01-13T05:09:19.408Z,12.40
2023-01-13T05:12:05.850Z,12.50
2023-01-13T05:14:59.857Z,12.50
2023-01-13T05:17:28.807Z,12.40
2023-01-13T05:19:57.003Z,12.50
2023-01-13T05:22:43.240Z,12.40
2023-01-13T05:25:25.294Z,12.50
2023-01-13T05:27:56.843Z,12.50
2023-01-13T05:30:27.160Z,12.40
2023-01-13T05:32:55.525Z,12.50
2023-01-13T05:35:23.914Z,12.30
2023-01-13T05:37:52.406Z,12.30
2023-01-13T05:40:39.738Z,12.30
2023-01-13T05:43:24.828Z,12.20
2023-01-13T05:45:58.167Z,12.10
2023-01-13T05:48:29.379Z,12.30
2023-01-13T05:50:58.203Z,12.10
2023-01-13T05:53:27.302Z,12.10
2023-01-13T05:55:57.553Z,12.10
2023-01-13T05:58:27.327Z,12.20
2023-01-13T06:01:00.761Z,12.20
2023-01-13T06:03:29.880Z,12.20
2023-01-13T06:06:01.673Z,12.20
2023-01-13T06:08:30.303Z,12.20
2023-01-13T06:11:00.208Z,12.30
2023-01-13T06:13:31.266Z,12.30
2023-01-13T06:16:02.196Z,12.30
2023-01-13T06:18:31.165Z,12.40
2023-01-13T06:20:59.671Z,12.30
2023-01-13T06:23:31.840Z,12.30
2023-01-13T06:26:07.076Z,12.40
2023-01-13T06:28:36.415Z,12.40
2023-01-13T06:31:08.556Z,12.40
2023-01-13T06:33:40.047Z,12.40
2023-01-13T06:36:13.525Z,12.40
2023-01-13T06:38:48.911Z,12.40
2023-01-13T06:41:41.367Z,12.40
2023-01-13T06:44:09.780Z,12.40
2023-01-13T06:46:38.377Z,12.50
2023-01-13T06:49:07.296Z,12.40
2023-01-13T06:51:35.820Z,12.50
2023-01-13T06:54:04.541Z,12.40
2023-01-13T06:56:34.417Z,12.30
2023-01-13T06:59:03.006Z,12.40
2023-01-13T07:01:31.518Z,12.40
2023-01-13T07:04:01.144Z,12.40
2023-01-13T07:06:29.903Z,12.40
2023-01-13T07:08:58.586Z,12.40
2023-01-13T07:11:28.911Z,12.50
2023-01-13T07:14:16.894Z,12.40
2023-01-13T07:16:45.115Z,12.40
2023-01-13T07:19:13.806Z,12.40
2023-01-13T07:21:42.148Z,12.50
2023-01-13T07:24:10.960Z,12.50
2023-01-13T07:26:39.445Z,12.40
2023-01-13T07:29:09.922Z,12.50
2023-01-13T07:31:39.080Z,12.40
2023-01-13T07:34:08.162Z,12.50
2023-01-13T07:36:36.582Z,12.50
2023-01-13T07:39:05.278Z,12.50
2023-01-13T07:41:51.434Z,12.50
2023-01-13T07:44:21.478Z,12.50
2023-01-13T07:46:49.991Z,12.60
2023-01-13T07:49:18.564Z,12.40
2023-01-13T07:51:47.267Z,12.40
2023-01-13T07:54:16.192Z,12.20
2023-01-13T07:56:44.467Z,12.10
2023-01-13T07:59:13.087Z,11.90
2023-01-13T08:01:43.169Z,12.00
2023-01-13T08:04:11.515Z,12.00
2023-01-13T08:06:40.920Z,11.90
2023-01-13T08:09:10.024Z,11.90
2023-01-13T08:11:38.589Z,11.90
2023-01-13T08:14:09.342Z,11.80
2023-01-13T08:16:37.999Z,11.90
2023-01-13T08:19:07.531Z,11.80
2023-01-13T08:21:36.017Z,11.70
2023-01-13T08:24:04.454Z,11.70
2023-01-13T08:26:32.916Z,11.60
2023-01-13T08:29:01.198Z,11.60
2023-01-13T08:31:29.630Z,11.70
2023-01-13T08:33:57.746Z,11.70
2023-01-13T08:36:27.813Z,11.80
2023-01-13T08:38:56.141Z,11.70
2023-01-13T08:41:38.383Z,11.70
2023-01-13T08:44:09.325Z,11.70
2023-01-13T08:46:38.075Z,11.60
2023-01-13T08:49:06.372Z,11.60
2023-01-13T08:51:37.043Z,11.70
2023-01-13T08:54:05.716Z,11.50
2023-01-13T08:56:35.687Z,11.60
2023-01-13T08:59:04.892Z,11.50
2023-01-13T09:01:34.127Z,11.40
2023-01-13T09:04:02.506Z,11.40
2023-01-13T09:06:31.037Z,11.40
2023-01-13T09:09:02.403Z,11.50
2023-01-13T09:11:51.616Z,11.60
2023-01-13T09:14:20.637Z,11.50
2023-01-13T09:16:49.415Z,11.40
2023-01-13T09:19:18.066Z,11.50
2023-01-13T09:21:46.978Z,11.40
2023-01-13T09:24:16.638Z,11.40
2023-01-13T09:26:45.392Z,11.50
2023-01-13T09:29:13.983Z,11.50
2023-01-13T09:31:44.233Z,11.40
2023-01-13T09:34:33.346Z,11.40
2023-01-13T09:37:03.797Z,11.40
2023-01-13T09:39:35.308Z,11.50
2023-01-13T09:42:26.263Z,11.40
2023-01-13T09:44:59.691Z,11.50
2023-01-13T09:47:33.147Z,11.50
2023-01-13T09:50:11.076Z,11.50
2023-01-13T09:52:39.319Z,11.40
2023-01-13T09:55:15.421Z,11.50
2023-01-13T09:57:44.028Z,11.40
2023-01-13T10:00:18.898Z,11.40
2023-01-13T10:03:05.655Z,11.60
2023-01-13T10:05:37.670Z,11.40
2023-01-13T10:08:12.578Z,11.60
2023-01-13T10:10:46.352Z,11.50
2023-01-13T10:13:19.947Z,11.50
2023-01-13T10:16:02.932Z,11.50
2023-01-13T10:18:42.226Z,11.50
2023-01-13T10:21:26.140Z,11.50
2023-01-13T10:24:01.101Z,11.50
2023-01-13T10:26:41.829Z,11.60
2023-01-13T10:29:21.537Z,11.70
2023-01-13T10:31:49.801Z,11.50
2023-01-13T10:34:18.272Z,11.50
2023-01-13T10:36:59.283Z,11.50
2023-01-13T10:39:28.184Z,11.60
2023-01-13T10:42:06.207Z,11.50
2023-01-13T10:44:47.479Z,11.50
2023-01-13T10:47:27.423Z,11.70
2023-01-13T10:50:20.527Z,11.60
2023-01-13T10:53:01.352Z,11.70
2023-01-13T10:56:02.714Z,11.70
2023-01-13T10:58:32.302Z,11.70
2023-01-13T11:01:02.952Z,11.70
2023-01-13T11:03:41.396Z,11.70
2023-01-13T11:06:11.391Z,11.90
2023-01-13T11:08:45.360Z,11.80
2023-01-13T11:11:39.261Z,11.90
2023-01-13T11:14:40.320Z,11.80
2023-01-13T11:17:23.430Z,11.90
2023-01-13T11:19:59.285Z,11.80
2023-01-13T11:22:33.025Z,11.90
2023-01-13T11:25:03.651Z,11.90
2023-01-13T11:27:41.164Z,12.10
2023-01-13T11:30:23.022Z,12.00
2023-01-13T11:33:12.706Z,12.00
2023-01-13T11:35:44.814Z,12.00
2023-01-13T11:38:18.683Z,12.10
2023-01-13T11:40:49.676Z,12.10
2023-01-13T11:43:23.821Z,12.10
2023-01-13T11:45:57.259Z,12.00
2023-01-13T11:48:29.793Z,11.90
2023-01-13T11:51:04.508Z,12.00
2023-01-13T11:53:52.850Z,12.10
2023-01-13T11:56:37.961Z,12.00
2023-01-13T11:59:45.839Z,12.00
2023-01-13T12:02:41.644Z,12.20
2023-01-13T12:05:20.032Z,12.10
2023-01-13T12:07:59.908Z,12.10
2023-01-13T12:10:43.679Z,12.10
2023-01-13T12:13:22.944Z,12.00
2023-01-13T12:16:07.568Z,11.90
2023-01-13T12:18:48.593Z,11.90
2023-01-13T12:21:21.495Z,11.90
2023-01-13T12:24:01.635Z,12.00
2023-01-13T12:26:33.261Z,12.00
2023-01-13T12:29:05.962Z,11.90
2023-01-13T12:31:37.846Z,11.90
2023-01-13T12:34:33.523Z,12.00
2023-01-13T12:37:10.594Z,11.90
2023-01-13T12:39:48.686Z,12.00
2023-01-13T12:42:40.733Z,11.90
2023-01-13T12:45:30.587Z,11.90
2023-01-13T12:48:00.119Z,12.10
2023-01-13T12:50:43.640Z,12.20
2023-01-13T12:53:32.353Z,12.20
2023-01-13T12:56:26.304Z,12.10
2023-01-13T12:59:17.409Z,12.20
2023-01-13T13:01:47.566Z,12.30
2023-01-13T13:04:19.395Z,12.30
2023-01-13T13:06:54.413Z,12.30
2023-01-13T13:09:29.482Z,12.20
2023-01-13T13:12:15.588Z,12.30
2023-01-13T13:15:05.051Z,12.40
2023-01-13T13:17:44.378Z,12.30
2023-01-13T13:20:46.104Z,12.20
2023-01-13T13:23:43.711Z,12.20
2023-01-13T13:26:32.688Z,12.20
2023-01-13T13:29:24.573Z,12.10
2023-01-13T13:32:23.408Z,12.20
2023-01-13T13:35:02.913Z,12.10
2023-01-13T13:38:09.606Z,12.10
2023-01-13T13:41:01.547Z,12.00
2023-01-13T13:43:49.493Z,11.90
2023-01-13T13:46:44.210Z,11.80
2023-01-13T13:49:13.169Z,11.80
2023-01-13T13:51:46.472Z,11.70
2023-01-13T13:54:18.269Z,11.60
2023-01-13T13:56:50.526Z,11.50
2023-01-13T13:59:21.934Z,11.40
2023-01-13T14:02:01.723Z,11.40
2023-01-13T14:04:32.280Z,11.40
2023-01-13T14:07:04.416Z,11.40
2023-01-13T14:09:42.686Z,11.30
2023-01-13T14:12:18.700Z,11.40
2023-01-13T14:14:48.319Z,11.50
2023-01-13T14:17:26.385Z,11.60
2023-01-13T14:19:57.447Z,11.50
2023-01-13T14:22:26.212Z,11.40
2023-01-13T14:25:28.825Z,11.50
2023-01-13T14:28:01.620Z,11.40
2023-01-13T14:30:30.145Z,11.40
2023-01-13T14:32:59.385Z,11.50
2023-01-13T14:35:27.681Z,11.70
2023-01-13T14:38:04.231Z,11.50
2023-01-13T14:40:45.458Z,11.40
2023-01-13T14:43:18.889Z,11.50
2023-01-13T14:45:57.463Z,11.40
2023-01-13T14:48:35.377Z,11.40
2023-01-13T14:51:06.223Z,11.50
2023-01-13T14:53:40.626Z,11.30
2023-01-13T14:56:47.911Z,11.30
2023-01-13T14:59:51.546Z,11.30
2023-01-13T15:02:38.958Z,11.20
2023-01-13T15:05:48.100Z,11.20
2023-01-13T15:08:37.611Z,11.10
2023-01-13T15:11:09.217Z,11.10
2023-01-13T15:13:48.037Z,11.00
2023-01-13T15:16:25.589Z,11.00
2023-01-13T15:18:54.626Z,11.10
2023-01-13T15:21:23.097Z,11.00
2023-01-13T15:23:51.475Z,11.10
2023-01-13T15:26:25.606Z,11.00
2023-01-13T15:28:55.541Z,11.00
2023-01-13T15:31:44.822Z,11.00
2023-01-13T15:34:22.332Z,10.90
2023-01-13T15:36:51.153Z,10.90
2023-01-13T15:39:19.523Z,10.90
2023-01-13T15:42:05.814Z,10.80
2023-01-13T15:44:50.836Z,10.70
2023-01-13T15:47:23.631Z,10.80
2023-01-13T15:49:51.788Z,10.70
2023-01-13T15:52:22.319Z,10.70
2023-01-13T15:54:51.692Z,10.60
2023-01-13T15:57:23.442Z,10.60
2023-01-13T15:59:53.932Z,10.50
2023-01-13T16:02:24.312Z,10.50
2023-01-13T16:04:54.148Z,10.50
2023-01-13T16:07:25.181Z,10.40
2023-01-13T16:09:56.677Z,10.30
2023-01-13T16:12:30.405Z,10.30
2023-01-13T16:14:58.822Z,10.30
2023-01-13T16:17:30.202Z,10.30
2023-01-13T16:20:01.783Z,10.30
2023-01-13T16:22:30.458Z,10.20
2023-01-13T16:25:00.768Z,10.20
2023-01-13T16:27:29.296Z,10.20
2023-01-13T16:29:57.660Z,10.10
2023-01-13T16:32:26.307Z,10.10
2023-01-13T16:34:56.984Z,10.20
2023-01-13T16:37:28.271Z,10.10
2023-01-13T16:39:57.440Z,10.10
2023-01-13T16:42:26.094Z,10.10
2023-01-13T16:44:54.571Z,10.10
2023-01-13T16:47:24.217Z,10.10
2023-01-13T16:49:52.542Z,10.00
2023-01-13T16:52:22.458Z,10.10
2023-01-13T16:54:52.834Z,10.10
2023-01-13T16:57:24.800Z,10.00
2023-01-13T16:59:53.663Z,9.90
2023-01-13T17:02:24.794Z,10.00
2023-01-13T17:04:53.301Z,10.10
2023-01-13T17:07:23.676Z,10.10
2023-01-13T17:09:52.973Z,10.00
2023-01-13T17:12:22.152Z,9.90
2023-01-13T17:14:50.592Z,10.00
2023-01-13T17:17:23.044Z,10.00
2023-01-13T17:19:52.652Z,10.00
2023-01-13T17:22:23.540Z,9.90
2023-01-13T17:24:52.046Z,9.80
2023-01-13T17:27:21.397Z,10.00
2023-01-13T17:29:50.527Z,9.90
2023-01-13T17:32:20.953Z,9.90
2023-01-13T17:34:49.760Z,9.90
2023-01-13T17:37:19.415Z,9.90
2023-01-13T17:39:52.389Z,9.90
2023-01-13T17:42:20.822Z,9.90
2023-01-13T17:44:50.467Z,9.90
2023-01-13T17:47:18.952Z,9.90
2023-01-13T17:49:47.620Z,9.80
2023-01-13T17:52:18.213Z,9.90
2023-01-13T17:54:47.962Z,9.90
2023-01-13T17:57:16.231Z,9.90
2023-01-13T17:59:45.593Z,9.90
2023-01-13T18:02:14.136Z,9.90
2023-01-13T18:04:43.118Z,10.00
2023-01-13T18:07:11.377Z,9.90
2023-01-13T18:09:39.648Z,9.90
2023-01-13T18:12:09.602Z,9.90
2023-01-13T18:14:38.462Z,9.80
2023-01-13T18:17:07.216Z,9.80
2023-01-13T18:19:53.373Z,9.90
2023-01-13T18:22:42.549Z,9.90
2023-01-13T18:25:30.632Z,9.90
2023-01-13T18:28:01.238Z,9.90
2023-01-13T18:30:29.879Z,10.00
2023-01-13T18:33:01.412Z,10.00
2023-01-13T18:35:30.273Z,10.00
2023-01-13T18:38:02.165Z,10.10
2023-01-13T18:40:31.310Z,10.00
2023-01-13T18:43:00.590Z,10.00
2023-01-13T18:45:31.276Z,10.00
2023-01-13T18:48:02.085Z,10.00
2023-01-13T18:50:34.793Z,10.10
2023-01-13T18:53:03.957Z,10.10
2023-01-13T18:55:32.691Z,10.20
2023-01-13T18:58:02.376Z,10.10
2023-01-13T19:00:36.659Z,10.20
2023-01-13T19:05:35.782Z,10.20
2023-01-13T19:08:04.989Z,10.10
2023-01-13T19:10:33.994Z,10.20
2023-01-13T19:13:04.187Z,10.30
2023-01-13T19:15:32.938Z,10.10
2023-01-13T19:18:02.628Z,10.10
2023-01-13T19:20:31.842Z,10.10
2023-01-13T19:23:00.323Z,10.20
2023-01-13T19:25:31.627Z,10.10
2023-01-13T19:28:00.195Z,10.20
2023-01-13T19:30:30.397Z,10.20
2023-01-13T19:33:01.043Z,10.20
2023-01-13T19:35:29.954Z,10.10
2023-01-13T19:37:58.242Z,10.20
2023-01-13T19:40:27.287Z,10.20
2023-01-13T19:43:13.613Z,10.30
2023-01-13T19:45:45.171Z,10.30
2023-01-13T19:48:16.155Z,10.20
2023-01-13T19:50:44.773Z,10.20
2023-01-13T19:53:17.999Z,10.20
2023-01-13T19:55:48.386Z,10.30
2023-01-13T19:58:16.601Z,10.30
2023-01-13T20:00:48.762Z,10.30
2023-01-13T20:03:19.141Z,10.30
2023-01-13T20:05:47.998Z,10.30
2023-01-13T20:08:16.501Z,10.20
2023-01-13T20:10:46.550Z,10.30
2023-01-13T20:13:17.415Z,10.30
2023-01-13T20:15:47.533Z,10.30
2023-01-13T20:18:15.904Z,10.30
2023-01-13T20:20:44.972Z,10.30
2023-01-13T20:23:13.522Z,10.30
2023-01-13T20:25:43.507Z,10.30
2023-01-13T20:28:11.965Z,10.30
2023-01-13T20:30:41.694Z,10.30
2023-01-13T20:33:11.565Z,10.20
2023-01-13T20:35:39.866Z,10.20
2023-01-13T20:38:08.341Z,10.20
2023-01-13T20:40:36.987Z,10.10
2023-01-13T20:43:05.424Z,10.20
2023-01-13T20:45:33.949Z,10.20
2023-01-13T20:48:02.423Z,10.20
2023-01-13T20:50:31.928Z,10.20
2023-01-13T20:53:00.526Z,10.20
2023-01-13T20:55:28.745Z,10.20
2023-01-13T20:57:57.127Z,10.30
2023-01-13T21:00:28.241Z,10.20
2023-01-13T21:02:57.230Z,10.20
2023-01-13T21:05:25.556Z,10.20
2023-01-13T21:07:55.097Z,10.40
2023-01-13T21:10:23.256Z,10.30
2023-01-13T21:13:09.366Z,10.30
2023-01-13T21:15:37.579Z,10.30
2023-01-13T21:18:23.778Z,10.30
2023-01-13T21:21:11.244Z,10.30
2023-01-13T21:23:41.124Z,10.30
2023-01-13T21:26:10.170Z,10.30
2023-01-13T21:28:38.463Z,10.30
2023-01-13T21:31:07.821Z,10.30
2023-01-13T21:33:36.639Z,10.20
2023-01-13T21:36:06.393Z,10.30
2023-01-13T21:38:35.315Z,10.30
2023-01-13T21:41:07.869Z,10.20
2023-01-13T21:43:55.525Z,10.30
2023-01-13T21:46:42.431Z,10.30
2023-01-13T21:49:10.731Z,10.30
2023-01-13T21:51:38.862Z,10.20
2023-01-13T21:54:07.105Z,10.30
2023-01-13T21:56:36.720Z,10.30
2023-01-13T21:59:05.080Z,10.30
2023-01-13T22:01:33.522Z,10.30
2023-01-13T22:04:14.309Z,10.30
2023-01-13T22:06:42.490Z,10.30
2023-01-13T22:09:10.863Z,10.20
2023-01-13T22:11:40.478Z,10.30
2023-01-13T22:14:09.923Z,10.30
2023-01-13T22:16:41.575Z,10.20
2023-01-13T22:19:11.696Z,10.20
2023-01-13T22:21:40.173Z,10.20
2023-01-13T22:24:08.699Z,10.30
2023-01-13T22:26:36.865Z,10.30
2023-01-13T22:29:06.507Z,10.20
2023-01-13T22:31:35.372Z,10.30
2023-01-13T22:34:03.640Z,10.30
2023-01-13T22:36:31.807Z,10.20
2023-01-13T22:39:01.156Z,10.20
2023-01-13T22:41:29.541Z,10.10
2023-01-13T22:43:57.796Z,10.10
2023-01-13T22:46:27.906Z,10.10
2023-01-13T22:48:56.106Z,10.10
2023-01-13T22:51:25.247Z,10.10
2023-01-13T22:53:53.525Z,10.10
2023-01-13T22:56:23.991Z,10.00
2023-01-13T22:58:54.785Z,10.00
2023-01-13T23:01:24.299Z,9.90
2023-01-13T23:03:54.306Z,10.00
2023-01-13T23:06:23.607Z,9.90
2023-01-13T23:08:52.494Z,10.00
2023-01-13T23:11:24.177Z,9.90
2023-01-13T23:13:58.316Z,9.90
2023-01-13T23:16:27.354Z,9.80
2023-01-13T23:18:57.326Z,9.80
2023-01-13T23:21:27.849Z,9.80
2023-01-13T23:23:58.578Z,9.80
2023-01-13T23:26:28.369Z,9.80
2023-01-13T23:28:59.977Z,9.70
2023-01-13T23:31:28.646Z,9.70
2023-01-13T23:35:09.639Z,9.70
2023-01-13T23:37:40.476Z,9.70
2023-01-13T23:40:16.766Z,9.70
2023-01-13T23:42:51.418Z,9.70
2023-01-13T23:45:21.985Z,9.60
2023-01-13T23:47:50.345Z,9.60
2023-01-13T23:50:18.857Z,9.50
2023-01-13T23:52:49.158Z,9.60
2023-01-13T23:55:17.647Z,9.60
2023-01-13T23:57:46.253Z,9.60
